Washburn, Wisconsin
Current Conditions -  °F | °C
As of 9:53 AM on Tuesday 21 Oct 2014 (Local Time) from KASX Reporting Station
Overcast Overcast  
Wind Chill: 38°   Ceiling: 1800
Heat Index: 42°   Visibility: 10mi
Dew Point: 35°   Wind: 7mph
Humidity: 76%   Direction: 90°E
Pressure: 30.27"   Gusts: NA
Location:  46.67°N, 90.89°W
Report Text: KASX 211453Z AUTO 09006KT 10SM OVC018 06/02 A3027 RMK AO2 SLP257 T00560017 51012
Loading
Personal Weather Stations






























Interactive Weather Map
Tropical Storm Tracking
New forecast layout! Learn more

10-Day Weather Forecast

Advertisements
Track Severe Weather on mobile